Time;durP1;ratioP1;P1;durP2;ratioP2;P2;SDS_P1;SDS_P2;PMS_P1;PMS_P2;Temp;Humidity;BMP_temperature;BMP_pressure;BME280_temperature;BME280_humidity;BME280_pressure;Samples;Min_cycle;Max_cycle;Signal;HPM_P1;HPM_P2
2022/07/19 00:01:49;;;;;;;5.70;5.12;;;;;;;18.72;62.13;101084.86;3596750;77;22230;-77
2022/07/19 00:06:41;;;;;;;6.92;5.33;;;;;;;18.74;62.75;101086.16;3614505;77;20998;-77
2022/07/19 00:11:34;;;;;;;6.03;5.42;;;;;;;18.67;63.03;101095.46;3535243;77;20979;-77
2022/07/19 00:16:26;;;;;;;7.00;6.17;;;;;;;18.64;62.70;101094.63;3601954;77;21022;-77
2022/07/19 00:21:18;;;;;;;5.50;5.00;;;;;;;18.62;62.77;101092.00;3605159;77;20947;-77
2022/07/19 00:26:10;;;;;;;5.95;5.35;;;;;;;18.62;62.96;101088.05;3564725;77;21416;-77
2022/07/19 00:31:04;;;;;;;5.85;5.08;;;;;;;18.58;63.21;101087.66;3503023;77;20965;-77
2022/07/19 00:35:56;;;;;;;8.43;6.05;;;;;;;18.61;63.11;101081.02;3566277;77;21508;-77
2022/07/19 00:40:49;;;;;;;7.60;5.80;;;;;;;18.60;63.18;101074.03;3595331;77;20969;-77
2022/07/19 00:45:41;;;;;;;6.70;6.10;;;;;;;18.57;62.91;101067.47;3558264;77;20906;-77
2022/07/19 00:50:33;;;;;;;8.33;6.20;;;;;;;18.55;63.10;101072.34;3559191;78;20999;-77
2022/07/19 00:55:29;;;;;;;7.55;6.05;;;;;;;18.50;63.35;101064.47;3479511;79;20959;-77
2022/07/19 01:00:21;;;;;;;5.92;5.30;;;;;;;18.48;63.05;101068.44;3527101;79;21434;-77
2022/07/19 01:05:14;;;;;;;7.92;7.10;;;;;;;18.48;63.63;101063.63;3535325;79;20986;-77
2022/07/19 01:10:09;;;;;;;6.58;5.97;;;;;;;18.48;63.46;101067.57;3497744;80;21046;-77
2022/07/19 01:15:02;;;;;;;5.87;5.33;;;;;;;18.46;63.71;101066.72;3524898;79;21430;-77
2022/07/19 01:19:54;;;;;;;6.03;5.42;;;;;;;18.46;63.51;101060.14;3519439;79;21030;-77
2022/07/19 01:24:46;;;;;;;7.00;5.53;;;;;;;18.44;63.73;101054.02;3503237;80;21209;-77
2022/07/19 01:29:39;;;;;;;6.20;5.50;;;;;;;18.40;63.86;101054.91;3452006;79;20947;-77
2022/07/19 01:34:32;;;;;;;6.45;5.75;;;;;;;18.37;63.75;101058.88;3514096;79;20952;-77
2022/07/19 01:39:24;;;;;;;6.08;5.47;;;;;;;18.29;63.84;101049.75;3501411;79;21097;-77
2022/07/19 01:44:17;;;;;;;8.55;6.95;;;;;;;18.25;63.96;101050.23;3525725;79;20940;-77
2022/07/19 01:49:09;;;;;;;8.63;6.20;;;;;;;18.25;64.05;101055.95;3505945;79;20975;-77
2022/07/19 01:54:01;;;;;;;6.78;6.08;;;;;;;18.22;64.12;101052.88;3491994;79;20923;-77
2022/07/19 01:58:53;;;;;;;5.78;5.22;;;;;;;18.28;64.42;101051.52;3518668;79;20968;-77
2022/07/19 02:03:45;;;;;;;7.83;6.67;;;;;;;18.29;64.40;101051.94;3460991;79;21866;-77
2022/07/19 02:08:38;;;;;;;7.80;6.05;;;;;;;18.24;64.45;101059.03;3551479;79;21014;-77
2022/07/19 02:13:31;;;;;;;7.00;6.22;;;;;;;18.23;64.77;101059.91;3543868;79;21213;-77
2022/07/19 02:18:23;;;;;;;7.03;5.95;;;;;;;18.24;64.52;101052.45;3510393;79;20935;-77
2022/07/19 02:23:15;;;;;;;7.17;5.92;;;;;;;18.24;64.53;101047.61;3497497;79;21003;-77
2022/07/19 02:28:07;;;;;;;6.70;6.10;;;;;;;18.23;64.75;101059.04;3492545;79;21749;-77
2022/07/19 02:32:59;;;;;;;8.15;6.67;;;;;;;18.15;64.68;101050.33;3507978;79;20960;-77
2022/07/19 02:37:51;;;;;;;5.83;5.33;;;;;;;18.12;64.95;101051.66;3517604;79;21147;-77
2022/07/19 02:42:44;;;;;;;6.62;5.90;;;;;;;18.08;65.23;101050.82;3537159;79;20999;-77
2022/07/19 02:47:36;;;;;;;8.88;5.87;;;;;;;18.03;65.12;101048.25;3598399;77;21544;-77
2022/07/19 02:52:30;;;;;;;7.80;5.83;;;;;;;17.97;65.31;101051.36;3566871;77;20920;-77
2022/07/19 02:57:22;;;;;;;7.50;5.60;;;;;;;17.99;65.40;101057.48;3504035;79;20959;-77
2022/07/19 03:02:15;;;;;;;6.90;5.90;;;;;;;17.99;65.67;101052.22;3617633;77;21328;-77
2022/07/19 03:07:07;;;;;;;6.30;5.70;;;;;;;17.90;65.69;101051.43;3586474;77;21130;-77
2022/07/19 03:11:59;;;;;;;6.67;6.05;;;;;;;17.85;65.83;101054.53;3546592;77;20932;-77
2022/07/19 03:16:51;;;;;;;6.55;5.83;;;;;;;17.83;66.26;101053.64;3521656;77;20976;-77
2022/07/19 03:21:43;;;;;;;7.45;5.62;;;;;;;17.81;66.51;101059.33;3578514;77;20994;-77
2022/07/19 03:26:35;;;;;;;7.78;5.78;;;;;;;17.81;66.30;101055.84;3580275;77;21005;-77
2022/07/19 03:31:27;;;;;;;7.12;6.20;;;;;;;17.84;66.38;101059.77;3575492;78;21057;-77
2022/07/19 03:36:19;;;;;;;6.83;6.00;;;;;;;17.85;66.47;101066.75;3576624;77;20940;-77
2022/07/19 03:41:12;;;;;;;6.90;5.45;;;;;;;17.87;66.60;101069.86;3546618;77;21021;-77
2022/07/19 03:46:04;;;;;;;7.37;5.40;;;;;;;17.86;66.65;101065.47;3523868;79;21465;-77
2022/07/19 03:50:56;;;;;;;6.05;5.45;;;;;;;17.89;66.74;101070.71;3495909;78;21017;-77
2022/07/19 03:55:48;;;;;;;5.95;5.45;;;;;;;17.90;66.99;101072.47;3493809;79;20979;-77
2022/07/19 04:00:41;;;;;;;6.75;5.83;;;;;;;17.94;66.81;101065.84;3457015;79;20967;-77
2022/07/19 04:05:33;;;;;;;6.70;6.08;;;;;;;18.02;66.81;101053.52;3488011;78;20916;-77
2022/07/19 04:10:25;;;;;;;6.72;6.03;;;;;;;18.07;66.76;101066.20;3506096;78;21003;-77
2022/07/19 04:15:17;;;;;;;6.75;6.03;;;;;;;18.13;67.03;101060.00;3497521;78;20946;-77
2022/07/19 04:20:11;;;;;;;6.12;5.60;;;;;;;18.19;67.07;101054.67;3453828;78;21576;-77
2022/07/19 04:25:04;;;;;;;8.28;5.67;;;;;;;18.20;66.83;101058.61;3472964;78;20923;-77
2022/07/19 04:29:58;;;;;;;6.05;5.47;;;;;;;18.26;66.85;101045.83;3489157;78;21501;-77
2022/07/19 04:34:50;;;;;;;7.28;6.28;;;;;;;18.39;66.85;101044.84;3475135;79;21555;-77
2022/07/19 04:39:42;;;;;;;8.28;6.58;;;;;;;18.54;66.75;101041.16;3458697;78;20974;-77
2022/07/19 04:44:34;;;;;;;8.68;6.37;;;;;;;18.68;66.69;101035.75;3540305;77;20887;-77
2022/07/19 04:49:27;;;;;;;6.40;5.90;;;;;;;18.84;66.69;101036.48;3566263;77;20963;-77
2022/07/19 04:54:19;;;;;;;7.70;6.80;;;;;;;19.01;66.46;101045.05;3588285;77;21785;-77
2022/07/19 04:59:11;;;;;;;8.43;6.95;;;;;;;19.22;66.15;101039.05;3618970;77;20931;-77
2022/07/19 05:04:04;;;;;;;9.30;7.40;;;;;;;19.48;66.08;101041.79;3556239;77;20938;-77
2022/07/19 05:08:56;;;;;;;8.55;6.65;;;;;;;19.62;65.99;101045.09;3539872;77;21479;-77
2022/07/19 05:13:48;;;;;;;8.33;6.40;;;;;;;19.71;65.72;101047.58;3607697;77;20966;-77
2022/07/19 05:18:41;;;;;;;7.65;6.80;;;;;;;19.89;65.95;101051.72;3543548;77;21690;-77
2022/07/19 05:23:33;;;;;;;9.63;7.67;;;;;;;20.05;65.28;101048.38;3593138;77;20955;-77
2022/07/19 05:28:25;;;;;;;8.30;6.60;;;;;;;20.29;64.84;101050.16;3610269;77;20942;-76
2022/07/19 05:33:17;;;;;;;8.20;6.53;;;;;;;20.45;64.33;101051.63;3581911;78;21021;-76
2022/07/19 05:38:10;;;;;;;9.25;5.70;;;;;;;20.64;63.88;101049.97;3527886;77;20977;-75
2022/07/19 05:43:02;;;;;;;7.90;5.92;;;;;;;20.76;63.35;101039.16;3624063;77;20945;-76
2022/07/19 05:47:54;;;;;;;6.65;6.03;;;;;;;20.88;63.34;101038.92;3580965;77;20978;-76
2022/07/19 05:52:46;;;;;;;5.67;5.05;;;;;;;20.85;62.82;101036.79;3588930;77;21457;-76
2022/07/19 05:57:38;;;;;;;6.65;5.83;;;;;;;20.81;62.50;101041.73;3571673;77;21535;-76
2022/07/19 06:02:30;;;;;;;5.90;4.85;;;;;;;20.85;62.84;101038.97;3599137;77;20992;-76
2022/07/19 06:07:23;;;;;;;6.58;5.87;;;;;;;21.03;63.04;101046.10;3587644;77;21357;-76
2022/07/19 06:12:15;;;;;;;7.35;5.35;;;;;;;21.29;62.47;101038.48;3590802;76;20988;-76
2022/07/19 06:17:08;;;;;;;10.28;4.67;;;;;;;21.56;61.70;101038.78;3583543;77;20944;-76
2022/07/19 06:22:00;;;;;;;7.17;4.37;;;;;;;21.76;60.37;101046.70;3529500;77;20921;-76
2022/07/19 06:26:52;;;;;;;4.90;4.30;;;;;;;21.79;60.30;101047.95;3599398;77;20966;-76
2022/07/19 06:31:44;;;;;;;6.30;4.70;;;;;;;21.68;59.40;101051.73;3550498;76;21440;-76
2022/07/19 06:36:36;;;;;;;5.58;4.42;;;;;;;21.82;59.17;101049.19;3608663;77;21003;-76
2022/07/19 06:41:28;;;;;;;7.28;4.85;;;;;;;22.18;59.46;101051.84;3561875;77;20957;-76
2022/07/19 06:46:20;;;;;;;8.55;5.20;;;;;;;22.49;59.03;101052.38;3616679;77;21557;-76
2022/07/19 06:51:13;;;;;;;7.28;4.20;;;;;;;22.61;58.53;101052.04;3559613;77;21447;-76
2022/07/19 06:56:06;;;;;;;4.47;4.08;;;;;;;22.75;58.00;101047.22;3598301;77;21006;-76
2022/07/19 07:01:00;;;;;;;6.40;4.17;;;;;;;22.83;57.26;101049.18;3556575;77;20969;-75
2022/07/19 07:05:52;;;;;;;8.48;4.50;;;;;;;22.79;57.18;101058.14;3594228;77;20961;-76
2022/07/19 07:10:44;;;;;;;4.53;3.80;;;;;;;22.68;57.40;101061.56;3604386;77;20984;-76
2022/07/19 07:15:38;;;;;;;11.65;5.10;;;;;;;22.59;57.05;101070.63;3576255;78;20952;-76
2022/07/19 07:20:30;;;;;;;6.53;4.28;;;;;;;22.66;57.47;101064.71;3563660;78;20937;-76
2022/07/19 07:25:22;;;;;;;8.50;4.97;;;;;;;22.73;57.04;101060.98;3620650;77;22365;-75
2022/07/19 07:30:15;;;;;;;7.45;5.42;;;;;;;22.84;56.45;101062.00;3579190;77;21503;-75
2022/07/19 07:35:08;;;;;;;6.83;4.75;;;;;;;22.95;56.25;101049.30;3565386;77;21039;-76
2022/07/19 07:40:02;;;;;;;6.00;5.35;;;;;;;23.14;57.16;101050.09;3569182;77;49265;-74
2022/07/19 07:44:54;;;;;;;7.83;4.75;;;;;;;23.22;56.41;101047.63;3510828;77;21053;-75
2022/07/19 07:49:47;;;;;;;8.68;4.60;;;;;;;23.44;55.25;101048.28;3601586;77;21494;-74
2022/07/19 07:54:40;;;;;;;6.70;5.25;;;;;;;23.85;55.43;101057.20;3577680;78;21486;-76
2022/07/19 07:59:32;;;;;;;5.75;4.60;;;;;;;23.95;54.83;101051.53;3569397;78;20951;-77
2022/07/19 08:04:24;;;;;;;13.08;4.80;;;;;;;24.40;54.92;101047.34;3552536;78;20969;-76
2022/07/19 08:09:16;;;;;;;5.12;4.62;;;;;;;24.63;53.41;101047.00;3596796;77;20961;-76
2022/07/19 08:14:08;;;;;;;5.20;4.08;;;;;;;24.54;54.17;101053.54;3546908;78;20969;-75
2022/07/19 08:19:01;;;;;;;8.40;4.20;;;;;;;24.48;53.36;101057.70;3564472;77;21024;-78
2022/07/19 08:23:53;;;;;;;6.80;3.92;;;;;;;24.39;53.90;101058.03;3544939;77;21004;-76
2022/07/19 08:28:47;;;;;;;7.03;3.70;;;;;;;24.35;53.71;101066.09;3627744;77;20973;-76
2022/07/19 08:33:41;;;;;;;4.80;3.90;;;;;;;24.45;52.90;101059.12;3581777;78;21449;-76
2022/07/19 08:38:33;;;;;;;3.72;3.27;;;;;;;24.63;52.74;101067.83;3576174;77;21083;-75
2022/07/19 08:43:27;;;;;;;6.42;3.72;;;;;;;25.01;52.85;101058.88;3517172;78;21672;-75
2022/07/19 08:48:21;;;;;;;8.65;4.28;;;;;;;24.84;52.67;101058.64;3464779;80;20984;-75
2022/07/19 08:53:15;;;;;;;8.75;3.75;;;;;;;24.79;52.55;101063.26;3436251;80;20872;-77
2022/07/19 08:58:08;;;;;;;4.80;4.22;;;;;;;24.97;51.72;101054.61;3424269;80;20994;-76
2022/07/19 09:03:05;;;;;;;7.33;3.95;;;;;;;25.44;51.75;101043.94;3401872;81;20998;-75
2022/07/19 09:08:14;;;;;;;7.40;4.05;;;;;;;26.33;50.08;101034.53;3433045;81;20999;-76
2022/07/19 09:13:10;;;;;;;5.92;4.00;;;;;;;26.72;49.07;101023.91;3441926;80;20914;-76
2022/07/19 09:18:23;;;;;;;5.85;4.12;;;;;;;27.25;48.21;101021.45;3398882;81;21030;-75
2022/07/19 09:23:16;;;;;;;6.85;4.00;;;;;;;27.36;47.46;101024.05;3422637;81;21076;-75
2022/07/19 09:28:09;;;;;;;3.90;3.40;;;;;;;27.62;47.13;101024.56;3437176;81;21470;-75
2022/07/19 09:33:18;;;;;;;3.62;3.12;;;;;;;28.68;46.62;101019.61;3409349;81;21897;-76
2022/07/19 09:38:21;;;;;;;4.33;3.10;;;;;;;30.73;43.67;101014.44;3414426;81;20991;-75
2022/07/19 09:43:14;;;;;;;5.65;3.47;;;;;;;29.53;44.42;101017.13;3416095;78;21018;-76
2022/07/19 09:48:07;;;;;;;7.72;3.33;;;;;;;30.41;42.59;101023.53;3508822;78;22188;-76
2022/07/19 09:53:03;;;;;;;7.15;4.17;;;;;;;32.85;38.24;101020.86;3511930;78;20888;-73
2022/07/19 09:57:59;;;;;;;3.72;3.02;;;;;;;35.42;36.90;101006.94;3563576;78;20974;-74
2022/07/19 10:02:58;;;;;;;6.03;3.02;;;;;;;36.90;33.89;101013.14;3496193;79;21002;-74
2022/07/19 10:07:51;;;;;;;5.65;2.92;;;;;;;37.78;31.98;101004.66;3505218;78;21045;-74
2022/07/19 10:12:46;;;;;;;3.05;2.60;;;;;;;38.52;31.23;101004.41;3495705;78;21098;-75
2022/07/19 10:17:44;;;;;;;6.22;2.58;;;;;;;39.06;29.63;100989.16;3532521;78;21900;-74
2022/07/19 10:22:39;;;;;;;2.70;2.50;;;;;;;39.56;28.89;100980.13;3492990;79;21014;-74
2022/07/19 10:27:39;;;;;;;3.22;2.27;;;;;;;40.18;29.16;100984.16;3485185;79;21481;-74
2022/07/19 10:32:32;;;;;;;3.58;3.15;;;;;;;40.50;27.85;100986.23;3491627;79;21357;-73
2022/07/19 10:37:41;;;;;;;2.65;2.45;;;;;;;40.41;27.80;100985.85;3542764;78;22427;-73
2022/07/19 10:42:33;;;;;;;4.25;3.30;;;;;;;39.97;25.80;100981.82;3583403;78;21560;-75
2022/07/19 10:47:44;;;;;;;4.95;3.02;;;;;;;39.89;26.58;100979.00;3518898;78;20982;-75
2022/07/19 10:52:38;;;;;;;4.17;2.90;;;;;;;39.88;26.41;100978.67;3535632;78;20945;-73
2022/07/19 10:57:38;;;;;;;3.55;3.12;;;;;;;39.34;26.91;100970.05;3446379;80;20926;-74
2022/07/19 11:02:30;;;;;;;2.92;2.72;;;;;;;39.18;27.73;100965.82;3506865;79;21706;-74
2022/07/19 11:07:23;;;;;;;3.98;2.77;;;;;;;39.13;26.94;100967.62;3493467;78;20950;-74
2022/07/19 11:12:32;;;;;;;6.80;3.00;;;;;;;38.65;26.25;100958.78;3492819;78;20943;-74
2022/07/19 11:17:25;;;;;;;2.90;2.52;;;;;;;37.23;28.13;100966.39;3518306;77;20903;-74
2022/07/19 11:22:17;;;;;;;7.55;3.45;;;;;;;35.61;29.00;100960.25;3577292;77;20981;-74
2022/07/19 11:27:09;;;;;;;5.10;3.45;;;;;;;34.66;29.77;100970.31;3596253;78;21013;-74
2022/07/19 11:32:02;;;;;;;3.17;2.87;;;;;;;33.59;29.70;100961.52;3558926;77;20930;-74
2022/07/19 11:36:58;;;;;;;3.52;3.10;;;;;;;33.10;30.44;100956.63;3590858;77;21028;-74
2022/07/19 11:41:50;;;;;;;4.35;3.02;;;;;;;32.58;31.68;100951.86;3567816;77;20985;-74
2022/07/19 11:46:42;;;;;;;3.87;3.47;;;;;;;32.58;32.11;100950.52;3547950;77;21523;-74
2022/07/19 11:51:36;;;;;;;4.58;3.17;;;;;;;32.19;31.46;100949.70;3558176;77;21018;-74
2022/07/19 11:56:32;;;;;;;3.33;3.05;;;;;;;32.06;32.55;100954.23;3544761;77;20996;-74
2022/07/19 12:01:32;;;;;;;3.58;3.27;;;;;;;32.11;33.31;100941.33;3574585;77;21005;-73
2022/07/19 12:06:47;;;;;;;4.40;3.47;;;;;;;32.17;33.13;100930.12;3579916;77;22298;-74
2022/07/19 12:11:49;;;;;;;3.92;3.62;;;;;;;31.81;32.76;100930.84;3523814;77;20941;-73
2022/07/19 12:16:41;;;;;;;3.77;3.30;;;;;;;31.43;34.36;100926.25;3567450;76;21220;-73
2022/07/19 12:21:40;;;;;;;4.42;3.75;;;;;;;31.91;35.08;100926.06;3557148;77;21444;-73
2022/07/19 12:26:33;;;;;;;4.95;3.70;;;;;;;32.05;33.26;100921.57;3571474;77;21005;-73
2022/07/19 12:31:25;;;;;;;5.47;3.50;;;;;;;31.86;32.44;100917.46;3533764;77;21115;-74
2022/07/19 12:36:36;;;;;;;4.22;2.75;;;;;;;31.24;33.30;100913.18;3532209;77;20967;-72
2022/07/19 12:41:29;;;;;;;5.62;3.55;;;;;;;30.68;34.46;100917.27;3564778;77;21699;-75
2022/07/19 12:46:21;;;;;;;4.85;3.45;;;;;;;31.48;34.00;100907.53;3566167;77;20974;-75
2022/07/19 12:51:14;;;;;;;4.40;3.10;;;;;;;32.15;32.64;100897.10;3561417;79;20981;-74
2022/07/19 12:56:07;;;;;;;4.45;3.33;;;;;;;32.59;34.43;100897.11;3538897;77;21558;-73
2022/07/19 13:00:59;;;;;;;6.45;3.98;;;;;;;32.87;32.54;100896.41;3548169;77;21057;-74
2022/07/19 13:05:51;;;;;;;3.60;3.17;;;;;;;32.85;32.75;100890.28;3543251;78;21472;-74
2022/07/19 13:10:44;;;;;;;4.12;3.42;;;;;;;32.80;32.64;100873.60;3578521;77;20993;-74
2022/07/19 13:15:36;;;;;;;5.33;3.42;;;;;;;32.74;32.14;100871.37;3597339;77;20911;-74
2022/07/19 13:20:28;;;;;;;4.03;3.45;;;;;;;33.03;32.69;100864.66;3576194;77;20966;-75
2022/07/19 13:25:21;;;;;;;4.37;3.12;;;;;;;33.13;31.57;100870.75;3590546;77;20977;-74
2022/07/19 13:30:13;;;;;;;3.75;3.45;;;;;;;32.95;31.08;100856.81;3571680;77;20985;-75
2022/07/19 13:35:07;;;;;;;3.92;3.62;;;;;;;32.45;31.87;100869.82;3560970;77;21478;-74
2022/07/19 13:39:59;;;;;;;4.37;3.65;;;;;;;32.83;31.86;100861.27;3566952;77;20930;-75
2022/07/19 13:44:51;;;;;;;4.50;3.85;;;;;;;33.13;32.22;100857.28;3526179;76;20976;-75
2022/07/19 13:49:44;;;;;;;4.72;3.98;;;;;;;32.95;30.97;100852.27;3494524;78;20935;-74
2022/07/19 13:54:36;;;;;;;4.87;3.60;;;;;;;32.83;31.62;100849.16;3564035;77;21470;-75
2022/07/19 13:59:30;;;;;;;3.80;3.45;;;;;;;32.94;30.89;100845.66;3539577;78;21000;-75
2022/07/19 14:04:22;;;;;;;4.33;3.47;;;;;;;32.82;31.37;100842.92;3570960;77;20982;-77
2022/07/19 14:09:14;;;;;;;4.35;3.35;;;;;;;32.19;31.10;100847.48;3575018;77;20989;-76
2022/07/19 14:14:06;;;;;;;4.83;3.35;;;;;;;31.69;31.52;100854.14;3550503;77;20982;-77
2022/07/19 14:18:59;;;;;;;4.33;3.42;;;;;;;32.44;32.52;100845.22;3599240;77;21104;-77
2022/07/19 14:23:51;;;;;;;5.20;3.40;;;;;;;32.26;31.45;100843.39;3508859;77;20954;-77
2022/07/19 14:28:43;;;;;;;3.55;3.12;;;;;;;31.92;31.33;100855.18;3535610;77;21484;-77
2022/07/19 14:33:35;;;;;;;4.17;3.75;;;;;;;31.44;31.67;100846.86;3561140;77;20959;-78
2022/07/19 14:38:28;;;;;;;3.37;3.08;;;;;;;31.41;32.17;100842.19;3540692;77;20985;-77
2022/07/19 14:43:21;;;;;;;3.87;3.55;;;;;;;32.06;32.66;100827.84;3556462;75;21379;-77
2022/07/19 14:48:13;;;;;;;3.67;3.12;;;;;;;32.39;31.60;100820.52;3531504;77;21733;-77
2022/07/19 14:53:06;;;;;;;5.53;3.40;;;;;;;32.61;31.33;100821.15;3565156;77;22246;-77
2022/07/19 14:57:58;;;;;;;5.42;3.17;;;;;;;32.75;31.18;100813.86;3597900;77;20959;-77
2022/07/19 15:02:51;;;;;;;5.78;3.75;;;;;;;32.94;31.53;100813.34;3579873;77;21010;-78
2022/07/19 15:07:43;;;;;;;3.77;3.33;;;;;;;32.79;31.06;100818.06;3543653;77;20886;-76
2022/07/19 15:12:35;;;;;;;11.00;4.25;;;;;;;32.55;31.51;100813.48;3587674;77;20957;-76
2022/07/19 15:17:27;;;;;;;4.20;3.85;;;;;;;32.11;31.20;100808.20;3542843;77;20968;-77
2022/07/19 15:22:20;;;;;;;5.90;3.75;;;;;;;31.68;31.61;100807.22;3586340;77;21507;-77
2022/07/19 15:27:12;;;;;;;3.47;3.17;;;;;;;32.01;31.70;100800.39;3548324;77;21495;-76
2022/07/19 15:32:09;;;;;;;3.87;3.20;;;;;;;31.83;31.95;100804.77;3594271;76;20923;-76
2022/07/19 15:37:01;;;;;;;4.75;3.15;;;;;;;32.06;31.17;100804.98;3592573;77;20895;-76
2022/07/19 15:41:53;;;;;;;3.85;3.27;;;;;;;32.04;31.03;100806.44;3561782;77;21302;-76
2022/07/19 15:46:45;;;;;;;3.87;3.58;;;;;;;31.64;31.49;100805.69;3595451;77;20920;-76
2022/07/19 15:51:38;;;;;;;4.95;3.75;;;;;;;31.09;31.84;100813.89;3546645;77;21079;-76
2022/07/19 15:56:30;;;;;;;4.65;3.87;;;;;;;31.02;32.58;100812.59;3610621;77;21213;-76
2022/07/19 16:01:22;;;;;;;3.62;3.33;;;;;;;30.56;32.90;100808.91;3538543;77;20938;-76
2022/07/19 16:06:14;;;;;;;3.67;3.33;;;;;;;30.22;33.37;100803.02;3593737;77;21587;-76
2022/07/19 16:11:07;;;;;;;4.42;3.70;;;;;;;29.95;33.35;100800.28;3570094;77;21193;-76
2022/07/19 16:16:00;;;;;;;3.70;3.37;;;;;;;29.80;33.66;100791.40;3578085;77;20950;-76
2022/07/19 16:20:52;;;;;;;4.83;3.85;;;;;;;30.10;33.43;100791.73;3618411;77;21795;-76
2022/07/19 16:25:45;;;;;;;3.42;3.12;;;;;;;30.32;33.46;100792.58;3612447;77;20949;-75
2022/07/19 16:30:37;;;;;;;6.55;3.35;;;;;;;30.19;33.18;100799.19;3555168;77;20927;-76
2022/07/19 16:35:30;;;;;;;3.80;3.40;;;;;;;30.29;33.54;100792.27;3602071;77;21489;-76
2022/07/19 16:40:22;;;;;;;4.92;3.62;;;;;;;30.30;32.84;100792.67;3568125;77;21460;-76
2022/07/19 16:45:14;;;;;;;6.03;3.58;;;;;;;30.29;32.67;100790.94;3643775;77;20984;-76
2022/07/19 16:50:08;;;;;;;3.40;3.10;;;;;;;30.37;32.69;100787.32;3618664;77;21057;-76
2022/07/19 16:55:01;;;;;;;4.28;2.90;;;;;;;30.36;33.24;100792.29;3547256;77;21238;-76
2022/07/19 16:59:53;;;;;;;4.05;3.15;;;;;;;30.33;33.29;100789.77;3539999;78;21064;-76
2022/07/19 17:04:45;;;;;;;4.72;3.62;;;;;;;30.45;33.19;100792.66;3502892;77;20936;-75
2022/07/19 17:09:37;;;;;;;3.72;3.10;;;;;;;30.46;33.14;100788.55;3597771;78;21048;-75
2022/07/19 17:14:30;;;;;;;4.10;3.70;;;;;;;30.43;33.61;100785.20;3571926;77;20925;-76
2022/07/19 17:19:22;;;;;;;4.28;3.42;;;;;;;30.38;33.54;100785.00;3547300;77;21013;-75
2022/07/19 17:24:14;;;;;;;3.75;2.80;;;;;;;30.18;33.51;100791.62;3598999;77;20939;-76
2022/07/19 17:29:07;;;;;;;3.80;3.50;;;;;;;29.93;33.63;100785.63;3586015;77;21448;-76
2022/07/19 17:33:59;;;;;;;4.17;3.72;;;;;;;29.74;33.73;100786.37;3591229;77;21476;-75
2022/07/19 17:38:51;;;;;;;4.47;3.47;;;;;;;29.53;33.82;100788.10;3600131;77;20999;-75
2022/07/19 17:43:45;;;;;;;4.22;3.00;;;;;;;29.33;34.14;100787.10;3568236;77;20957;-75
2022/07/19 17:48:37;;;;;;;3.47;3.10;;;;;;;29.08;34.24;100802.80;3504125;77;21064;-75
2022/07/19 17:53:29;;;;;;;3.75;3.37;;;;;;;28.93;34.82;100802.84;3575638;77;20950;-75
2022/07/19 17:58:22;;;;;;;5.40;3.25;;;;;;;28.71;35.91;100808.11;3531259;77;20981;-76
2022/07/19 18:03:14;;;;;;;5.17;3.75;;;;;;;28.45;36.20;100799.71;3566889;77;20918;-75
2022/07/19 18:08:08;;;;;;;11.28;3.47;;;;;;;28.20;37.36;100803.38;3570669;77;21076;-76
2022/07/19 18:13:01;;;;;;;6.12;3.33;;;;;;;27.87;37.90;100798.44;3599558;77;20944;-75
2022/07/19 18:17:54;;;;;;;8.08;3.70;;;;;;;27.49;38.59;100798.69;3568598;77;22164;-75
2022/07/19 18:22:50;;;;;;;3.90;3.50;;;;;;;27.17;39.29;100803.00;3551309;78;21875;-75
2022/07/19 18:27:42;;;;;;;4.65;3.67;;;;;;;26.82;39.95;100800.28;3565932;79;21026;-75
2022/07/19 18:32:34;;;;;;;3.83;3.42;;;;;;;26.53;40.89;100799.88;3564811;78;20984;-75
2022/07/19 18:37:27;;;;;;;4.28;3.87;;;;;;;26.28;42.01;100802.00;3516733;77;20929;-76
2022/07/19 18:42:19;;;;;;;4.30;3.87;;;;;;;25.99;41.41;100798.42;3567485;77;20926;-75
2022/07/19 18:47:11;;;;;;;5.58;4.05;;;;;;;25.73;42.40;100806.23;3564528;77;20985;-75
2022/07/19 18:52:03;;;;;;;5.95;4.30;;;;;;;25.49;43.07;100811.72;3597381;77;20981;-75
2022/07/19 18:56:56;;;;;;;6.60;4.05;;;;;;;25.22;43.35;100814.19;3534917;77;20946;-74
2022/07/19 19:01:48;;;;;;;5.12;3.85;;;;;;;24.99;43.97;100819.17;3597308;77;20996;-75
2022/07/19 19:06:40;;;;;;;7.05;3.77;;;;;;;24.79;44.38;100826.17;3577483;77;20997;-74
2022/07/19 19:11:33;;;;;;;5.17;3.92;;;;;;;24.62;44.86;100824.18;3555640;77;22383;-74
2022/07/19 19:16:25;;;;;;;4.78;3.60;;;;;;;24.39;44.69;100824.19;3583491;77;21588;-74
2022/07/19 19:21:18;;;;;;;17.30;5.35;;;;;;;24.23;45.72;100830.09;3642218;77;21514;-74
2022/07/19 19:26:10;;;;;;;10.78;4.28;;;;;;;24.03;46.32;100823.34;3582589;77;20970;-74
2022/07/19 19:31:02;;;;;;;10.43;4.80;;;;;;;23.85;46.86;100831.06;3597601;77;20961;-74
2022/07/19 19:35:55;;;;;;;5.78;4.70;;;;;;;23.71;47.46;100832.84;3615652;77;20943;-74
2022/07/19 19:40:47;;;;;;;8.25;4.05;;;;;;;23.54;47.65;100833.47;3537017;77;20965;-74
2022/07/19 19:45:40;;;;;;;5.55;3.87;;;;;;;23.40;48.55;100840.56;3617358;77;21636;-74
2022/07/19 19:50:32;;;;;;;8.13;4.80;;;;;;;23.25;48.81;100844.20;3559530;77;21494;-74
2022/07/19 19:55:24;;;;;;;7.87;5.03;;;;;;;23.07;49.39;100842.56;3517464;78;20977;-74
2022/07/19 20:00:17;;;;;;;6.15;4.40;;;;;;;22.96;49.85;100843.34;3538061;77;22446;-74
2022/07/19 20:05:12;;;;;;;5.45;4.40;;;;;;;22.82;50.37;100847.77;3574126;78;20960;-73
2022/07/19 20:10:05;;;;;;;5.70;4.53;;;;;;;22.67;50.43;100850.45;3636960;77;20973;-74
2022/07/19 20:14:59;;;;;;;9.35;5.58;;;;;;;22.60;50.78;100848.91;3563801;77;20993;-74
2022/07/19 20:19:53;;;;;;;6.00;4.42;;;;;;;22.45;51.03;100853.76;3592869;77;21008;-74
2022/07/19 20:24:46;;;;;;;5.28;4.62;;;;;;;22.32;51.40;100852.41;3567621;77;21499;-75
2022/07/19 20:29:38;;;;;;;8.33;5.33;;;;;;;22.17;51.60;100853.67;3572703;77;20979;-75
2022/07/19 20:34:31;;;;;;;5.42;4.92;;;;;;;22.00;51.94;100851.52;3550447;77;21028;-75
2022/07/19 20:39:23;;;;;;;6.20;5.03;;;;;;;21.89;51.82;100852.26;3593644;77;20898;-75
2022/07/19 20:44:16;;;;;;;6.50;5.35;;;;;;;21.73;52.34;100857.56;3592368;78;21043;-76
2022/07/19 20:49:08;;;;;;;9.55;5.75;;;;;;;21.57;52.44;100853.13;3583505;77;21413;-76
2022/07/19 20:54:01;;;;;;;9.58;5.97;;;;;;;21.41;52.67;100852.20;3640739;76;21000;-76
2022/07/19 20:58:55;;;;;;;7.45;5.22;;;;;;;21.28;53.22;100863.98;3560833;77;20956;-76
2022/07/19 21:03:48;;;;;;;7.15;5.42;;;;;;;21.13;53.79;100859.95;3577106;77;21004;-76
2022/07/19 21:08:40;;;;;;;8.70;6.97;;;;;;;21.05;54.40;100867.19;3596190;77;20920;-76
2022/07/19 21:13:33;;;;;;;8.08;5.80;;;;;;;20.93;54.68;100869.69;3586451;77;21455;-76
2022/07/19 21:18:26;;;;;;;6.62;5.22;;;;;;;20.79;55.30;100871.33;3593318;78;20953;-76
2022/07/19 21:23:18;;;;;;;9.50;5.80;;;;;;;20.71;55.83;100879.44;3586305;77;21466;-76
2022/07/19 21:28:10;;;;;;;8.90;5.45;;;;;;;20.60;56.29;100877.89;3559016;77;21033;-76
2022/07/19 21:33:03;;;;;;;11.80;5.65;;;;;;;20.49;56.74;100882.95;3583563;77;21029;-78
2022/07/19 21:37:55;;;;;;;7.78;6.25;;;;;;;20.41;57.13;100884.90;3579230;77;20982;-77
2022/07/19 21:42:48;;;;;;;6.58;5.72;;;;;;;20.33;57.37;100892.09;3517718;79;21452;-77
2022/07/19 21:47:42;;;;;;;6.28;5.17;;;;;;;20.26;57.85;100902.37;3441594;80;21021;-77
2022/07/19 21:52:34;;;;;;;8.90;6.03;;;;;;;20.21;58.11;100904.23;3458515;80;20974;-77
2022/07/19 21:57:26;;;;;;;10.18;6.10;;;;;;;20.13;58.17;100899.11;3456800;80;20955;-77
2022/07/19 22:02:20;;;;;;;9.60;5.67;;;;;;;20.04;58.42;100902.79;3489326;80;21020;-77
2022/07/19 22:07:13;;;;;;;7.97;5.33;;;;;;;19.97;58.56;100906.45;3470491;79;20939;-77
2022/07/19 22:12:05;;;;;;;7.17;6.12;;;;;;;19.88;59.07;100908.80;3482882;79;21005;-77
2022/07/19 22:16:58;;;;;;;5.70;5.15;;;;;;;19.85;59.34;100909.31;3443260;79;20989;-77
2022/07/19 22:21:51;;;;;;;7.97;5.55;;;;;;;19.80;59.63;100906.31;3430517;80;21706;-78
2022/07/19 22:26:43;;;;;;;7.15;5.67;;;;;;;19.74;59.75;100910.37;3488683;79;20979;-77
2022/07/19 22:31:35;;;;;;;5.70;4.92;;;;;;;19.67;59.81;100915.30;3446618;80;20974;-78
2022/07/19 22:36:27;;;;;;;11.12;5.85;;;;;;;19.65;59.95;100917.55;3501754;79;20985;-78
2022/07/19 22:41:19;;;;;;;7.70;5.08;;;;;;;19.60;60.12;100918.94;3491056;79;20970;-77